Time;durP1;ratioP1;P1;durP2;ratioP2;P2;SDS_P1;SDS_P2;PMS_P1;PMS_P2;Temp;Humidity;BMP_temperature;BMP_pressure;BME280_temperature;BME280_humidity;BME280_pressure;Samples;Min_cycle;Max_cycle;Signal;HPM_P1;HPM_P2
2022/12/08 00:01:48;;;;;;;1.65;1.02;;;3.70;99.90;;;;;;5063896;28;20052;-80
2022/12/08 00:04:13;;;;;;;11.38;1.83;;;3.60;99.90;;;;;;5062846;28;20049;-86
2022/12/08 00:09:27;;;;;;;6.43;1.25;;;3.60;99.90;;;;;;5064455;28;20075;-84
2022/12/08 00:11:57;;;;;;;1.33;0.73;;;3.60;99.90;;;;;;5062649;28;20071;-80
2022/12/08 00:14:25;;;;;;;2.05;1.10;;;3.60;99.90;;;;;;5063478;28;20047;-77
2022/12/08 00:16:51;;;;;;;0.50;0.40;;;3.50;99.90;;;;;;5064001;28;20062;-80
2022/12/08 00:19:16;;;;;;;1.55;0.50;;;3.50;99.90;;;;;;5063965;28;20044;-84
2022/12/08 00:21:42;;;;;;;3.53;1.80;;;3.50;99.90;;;;;;5062030;28;20410;-85
2022/12/08 00:24:08;;;;;;;2.60;1.15;;;3.50;99.90;;;;;;5063384;28;20549;-79
2022/12/08 00:26:33;;;;;;;1.17;0.60;;;3.40;99.90;;;;;;5064218;28;20123;-85
2022/12/08 00:28:59;;;;;;;1.80;0.60;;;3.50;99.90;;;;;;5061724;28;20036;-84
2022/12/08 00:31:24;;;;;;;1.70;0.50;;;3.40;99.90;;;;;;5063165;28;20129;-76
2022/12/08 00:33:50;;;;;;;1.90;0.73;;;3.50;99.90;;;;;;5063898;28;20075;-83
2022/12/08 00:36:15;;;;;;;0.90;0.90;;;3.50;99.90;;;;;;5062752;28;20064;-85
2022/12/08 00:38:43;;;;;;;3.50;1.23;;;3.40;99.90;;;;;;5062532;28;20044;-75
2022/12/08 00:41:14;;;;;;;1.98;1.00;;;3.40;99.90;;;;;;5061511;28;20370;-75
2022/12/08 00:43:40;;;;;;;1.85;0.88;;;3.40;99.90;;;;;;5064157;28;20548;-80
2022/12/08 00:46:05;;;;;;;1.08;0.77;;;3.40;99.90;;;;;;5061816;28;20055;-86
2022/12/08 00:48:31;;;;;;;1.02;0.70;;;3.40;99.90;;;;;;5062330;28;20036;-85
2022/12/08 00:50:57;;;;;;;1.25;0.77;;;3.40;99.90;;;;;;5061652;28;20549;-79
2022/12/08 00:53:22;;;;;;;2.97;0.77;;;3.40;99.90;;;;;;5063750;28;20133;-85
2022/12/08 00:55:48;;;;;;;1.25;1.15;;;3.40;99.90;;;;;;5062256;28;20479;-85
2022/12/08 00:58:13;;;;;;;41.50;3.17;;;3.40;99.90;;;;;;5062830;28;20121;-77
2022/12/08 01:00:40;;;;;;;8.88;1.60;;;3.40;99.90;;;;;;5063582;28;20110;-80
2022/12/08 01:03:11;;;;;;;4.22;1.20;;;3.40;99.90;;;;;;5062619;28;20048;-86
2022/12/08 01:05:38;;;;;;;5.13;0.60;;;3.30;99.90;;;;;;5061087;28;20502;-85
2022/12/08 01:08:07;;;;;;;1.00;0.50;;;3.40;99.90;;;;;;5061623;28;20044;-74
2022/12/08 01:10:38;;;;;;;0.75;0.63;;;3.30;99.90;;;;;;5063191;28;20049;-83
2022/12/08 01:13:04;;;;;;;7.43;0.70;;;3.30;99.90;;;;;;5044368;28;20051;-83
2022/12/08 01:15:29;;;;;;;1.97;1.43;;;3.30;99.90;;;;;;5062099;28;20040;-77
2022/12/08 01:17:55;;;;;;;0.50;0.30;;;3.30;99.90;;;;;;5061220;28;20072;-85
2022/12/08 01:20:20;;;;;;;2.30;0.60;;;3.30;99.90;;;;;;5062014;28;20040;-85
2022/12/08 01:22:46;;;;;;;0.88;0.68;;;3.20;99.90;;;;;;5062402;28;20270;-79
2022/12/08 01:25:12;;;;;;;0.75;0.60;;;3.20;99.90;;;;;;5062277;28;20558;-83
2022/12/08 01:27:37;;;;;;;1.83;0.93;;;3.20;99.90;;;;;;5062006;28;20119;-84
2022/12/08 01:30:03;;;;;;;1.80;0.40;;;3.20;99.90;;;;;;5061694;28;20465;-74
2022/12/08 01:32:29;;;;;;;0.77;0.50;;;3.20;99.90;;;;;;5063291;28;20128;-80
2022/12/08 01:34:54;;;;;;;1.63;0.73;;;3.20;99.90;;;;;;5061467;28;20127;-85
2022/12/08 01:37:20;;;;;;;6.25;0.85;;;3.20;99.90;;;;;;5061399;28;20460;-80
2022/12/08 01:39:45;;;;;;;1.30;0.65;;;3.20;99.90;;;;;;5061839;28;20048;-79
2022/12/08 01:42:22;;;;;;;4.57;0.47;;;3.20;99.90;;;;;;5061693;28;20131;-85
2022/12/08 01:44:59;;;;;;;1.17;0.70;;;3.20;99.90;;;;;;5062616;28;20055;-79
2022/12/08 01:47:31;;;;;;;2.47;0.50;;;3.20;99.90;;;;;;5061460;28;20043;-83
2022/12/08 01:49:57;;;;;;;3.05;0.52;;;3.20;99.90;;;;;;5060100;28;20062;-83
2022/12/08 01:52:29;;;;;;;3.47;1.00;;;3.20;99.90;;;;;;5061224;28;20542;-79
2022/12/08 01:55:10;;;;;;;1.13;0.57;;;3.20;99.90;;;;;;5061286;28;20044;-79
2022/12/08 01:57:41;;;;;;;7.97;2.87;;;3.20;99.90;;;;;;5061667;28;20040;-81
2022/12/08 02:00:13;;;;;;;1.77;1.27;;;3.20;99.90;;;;;;5061733;28;20044;-80
2022/12/08 02:02:53;;;;;;;1.45;0.45;;;3.20;99.90;;;;;;5061550;28;20503;-77
2022/12/08 02:05:23;;;;;;;1.25;0.85;;;3.20;99.90;;;;;;5059283;28;20419;-74
2022/12/08 02:07:50;;;;;;;1.45;0.50;;;3.20;99.90;;;;;;5060536;28;20049;-78
2022/12/08 02:10:21;;;;;;;0.20;0.20;;;3.20;99.90;;;;;;5138320;22;21037;-75
2022/12/08 02:12:50;;;;;;;1.67;1.55;;;3.30;99.90;;;;;;5060846;28;20526;-75
2022/12/08 02:15:16;;;;;;;2.33;1.40;;;3.30;99.90;;;;;;5063320;28;20089;-75
2022/12/08 02:18:06;;;;;;;3.72;0.75;;;3.30;99.90;;;;;;5063121;28;20047;-75
2022/12/08 02:20:40;;;;;;;0.73;0.30;;;3.30;99.90;;;;;;5062011;28;20483;-75
2022/12/08 02:23:32;;;;;;;2.63;0.57;;;3.30;99.90;;;;;;5061990;28;20123;-75
2022/12/08 02:26:17;;;;;;;3.80;0.57;;;3.30;99.90;;;;;;5061984;28;20048;-75
2022/12/08 02:29:16;;;;;;;4.22;1.52;;;3.30;99.90;;;;;;5061307;28;20135;-75
2022/12/08 02:32:06;;;;;;;0.98;0.63;;;3.30;99.90;;;;;;5062686;28;20053;-75
2022/12/08 02:35:07;;;;;;;1.55;0.93;;;3.30;99.90;;;;;;5044072;28;20449;-75
2022/12/08 02:37:37;;;;;;;0.47;0.47;;;3.20;99.90;;;;;;5076052;28;20078;-75
2022/12/08 02:40:22;;;;;;;0.83;0.33;;;3.10;99.90;;;;;;5062403;28;20074;-76
2022/12/08 02:43:01;;;;;;;1.80;0.50;;;2.90;99.90;;;;;;5063200;28;20045;-75
2022/12/08 02:45:32;;;;;;;2.27;1.13;;;2.90;99.90;;;;;;5060401;28;20075;-75
2022/12/08 02:47:59;;;;;;;1.03;0.57;;;2.90;99.90;;;;;;5060844;28;20040;-75
2022/12/08 02:50:25;;;;;;;1.07;0.30;;;2.80;99.90;;;;;;5061751;28;20036;-75
2022/12/08 02:52:51;;;;;;;0.87;0.80;;;2.80;99.90;;;;;;5064227;28;20449;-75
2022/12/08 02:55:37;;;;;;;0.53;0.47;;;2.80;99.90;;;;;;5066468;28;20024;-75
2022/12/08 02:58:31;;;;;;;7.90;1.20;;;2.80;99.90;;;;;;5064319;28;20383;-75
2022/12/08 03:01:13;;;;;;;1.63;0.30;;;2.80;99.90;;;;;;5047920;28;20406;-75
2022/12/08 03:03:49;;;;;;;1.38;0.82;;;2.80;99.90;;;;;;5064748;28;20504;-75
2022/12/08 03:06:33;;;;;;;2.33;1.05;;;2.80;99.90;;;;;;5064168;28;20482;-75
2022/12/08 03:09:23;;;;;;;1.27;0.20;;;2.80;99.90;;;;;;5063904;28;20053;-75
2022/12/08 03:11:52;;;;;;;5.37;1.20;;;2.80;99.90;;;;;;5065554;28;20044;-75
2022/12/08 03:14:20;;;;;;;1.00;0.47;;;2.80;99.90;;;;;;5066162;28;20045;-75
2022/12/08 03:16:49;;;;;;;0.30;0.30;;;2.80;99.90;;;;;;5065711;28;20119;-75
2022/12/08 03:19:18;;;;;;;1.73;0.60;;;2.80;99.90;;;;;;5064780;28;20453;-75
2022/12/08 03:21:48;;;;;;;1.53;0.60;;;2.80;99.90;;;;;;5066088;28;20109;-75
2022/12/08 03:24:16;;;;;;;0.85;0.50;;;2.80;99.90;;;;;;5065900;28;20044;-75
2022/12/08 03:26:47;;;;;;;1.07;0.40;;;2.80;99.90;;;;;;5064264;28;20102;-75
2022/12/08 03:29:13;;;;;;;0.50;0.40;;;2.80;99.90;;;;;;5065585;28;20088;-75
2022/12/08 03:31:44;;;;;;;0.50;0.30;;;2.80;99.90;;;;;;5065335;28;20106;-75
2022/12/08 03:34:10;;;;;;;1.17;0.50;;;2.80;99.90;;;;;;5064239;28;20048;-75
2022/12/08 03:36:36;;;;;;;8.27;0.43;;;2.80;99.90;;;;;;5063746;28;20123;-75
2022/12/08 03:39:02;;;;;;;6.47;1.33;;;2.80;99.90;;;;;;5065194;28;20124;-75
2022/12/08 03:41:28;;;;;;;1.42;0.93;;;2.80;99.90;;;;;;5064380;28;20044;-75
2022/12/08 03:43:57;;;;;;;0.93;0.73;;;2.70;99.90;;;;;;5064697;28;20541;-75
2022/12/08 03:46:26;;;;;;;1.63;0.93;;;2.70;99.90;;;;;;5064982;28;20048;-75
2022/12/08 03:48:52;;;;;;;1.40;1.03;;;2.80;99.90;;;;;;5045204;28;20072;-75
2022/12/08 03:51:18;;;;;;;1.20;0.80;;;2.70;99.90;;;;;;5044737;28;20612;-75
2022/12/08 03:53:44;;;;;;;2.50;2.30;;;2.70;99.90;;;;;;5044611;28;20407;-75
2022/12/08 03:56:21;;;;;;;2.33;0.47;;;2.70;99.90;;;;;;5044314;28;20051;-75
2022/12/08 03:58:47;;;;;;;0.47;0.40;;;2.70;99.90;;;;;;5060746;28;20036;-75
2022/12/08 04:01:12;;;;;;;0.90;0.47;;;2.70;99.90;;;;;;5064395;28;20102;-75
2022/12/08 04:03:38;;;;;;;4.20;0.63;;;2.70;99.90;;;;;;5064959;28;20047;-75
2022/12/08 04:06:04;;;;;;;0.55;0.55;;;2.70;99.90;;;;;;5064149;28;20294;-75
2022/12/08 04:08:30;;;;;;;0.60;0.40;;;2.70;99.90;;;;;;5064809;28;20116;-75
2022/12/08 04:10:55;;;;;;;1.77;0.40;;;2.70;99.90;;;;;;5064149;28;20709;-75
2022/12/08 04:13:21;;;;;;;6.65;1.65;;;2.70;99.90;;;;;;5064734;28;20057;-75
2022/12/08 04:15:47;;;;;;;2.13;0.47;;;2.70;99.90;;;;;;5064689;28;20486;-75
2022/12/08 04:18:13;;;;;;;2.17;0.30;;;2.70;99.90;;;;;;5063094;28;20075;-75
2022/12/08 04:20:40;;;;;;;1.10;0.55;;;2.70;99.90;;;;;;5063217;28;20044;-76
2022/12/08 04:23:06;;;;;;;1.15;0.82;;;2.70;99.90;;;;;;5064527;28;20037;-75
2022/12/08 04:25:32;;;;;;;1.13;0.55;;;2.70;99.90;;;;;;5063257;28;20071;-74
2022/12/08 04:27:58;;;;;;;1.88;0.50;;;2.70;99.90;;;;;;5062607;28;20094;-75
2022/12/08 04:30:23;;;;;;;0.47;0.33;;;2.70;99.90;;;;;;5063191;28;20037;-75
2022/12/08 04:32:49;;;;;;;1.20;0.90;;;2.70;99.90;;;;;;5063016;28;20047;-76
2022/12/08 04:35:15;;;;;;;0.87;0.57;;;2.70;99.90;;;;;;5063572;28;20134;-75
2022/12/08 04:37:42;;;;;;;3.00;0.60;;;2.70;99.90;;;;;;5045945;28;20090;-75
2022/12/08 04:40:07;;;;;;;0.53;0.30;;;2.70;99.90;;;;;;5063689;28;20051;-75
2022/12/08 04:42:33;;;;;;;0.57;0.30;;;2.70;99.90;;;;;;5064176;28;20041;-75
2022/12/08 04:44:59;;;;;;;1.20;0.33;;;2.70;99.90;;;;;;5050315;28;20123;-75
2022/12/08 04:47:24;;;;;;;1.27;0.70;;;2.70;99.90;;;;;;5043807;28;20037;-75
2022/12/08 04:49:50;;;;;;;1.03;0.80;;;2.60;99.90;;;;;;5043290;28;20045;-75
2022/12/08 04:52:15;;;;;;;9.10;1.00;;;2.60;99.90;;;;;;5043203;28;20495;-75
2022/12/08 04:54:41;;;;;;;1.43;0.67;;;2.60;99.90;;;;;;5043489;28;20124;-75
2022/12/08 04:57:06;;;;;;;2.23;0.57;;;2.60;99.90;;;;;;5045990;28;20044;-75
2022/12/08 04:59:32;;;;;;;1.70;0.67;;;2.60;99.90;;;;;;5063540;28;20479;-75
2022/12/08 05:01:57;;;;;;;0.40;0.40;;;2.60;99.90;;;;;;5063216;28;20049;-75
2022/12/08 05:04:24;;;;;;;2.87;0.47;;;2.60;99.90;;;;;;5061697;28;20076;-75
2022/12/08 05:06:50;;;;;;;6.70;1.25;;;2.60;99.90;;;;;;5063154;28;20080;-75
2022/12/08 05:09:15;;;;;;;2.27;0.50;;;2.60;99.90;;;;;;5062505;28;20708;-75
2022/12/08 05:11:41;;;;;;;1.08;0.50;;;2.60;99.90;;;;;;5061859;28;20063;-75
2022/12/08 05:14:14;;;;;;;9.10;2.87;;;2.60;99.90;;;;;;5061670;28;20036;-75
2022/12/08 05:16:41;;;;;;;3.63;1.30;;;2.60;99.90;;;;;;5062157;28;20654;-75
2022/12/08 05:19:07;;;;;;;0.87;0.73;;;2.60;99.90;;;;;;5060987;28;20087;-75
2022/12/08 05:21:33;;;;;;;0.83;0.63;;;2.60;99.90;;;;;;5063267;28;20520;-75
2022/12/08 05:23:59;;;;;;;1.53;0.40;;;2.60;99.90;;;;;;5062965;28;20044;-75
2022/12/08 05:26:24;;;;;;;0.70;0.60;;;2.60;99.90;;;;;;5037510;28;20223;-75
2022/12/08 05:28:50;;;;;;;2.58;0.93;;;2.60;99.90;;;;;;5043128;28;20115;-75
2022/12/08 05:31:16;;;;;;;1.97;0.60;;;2.60;99.90;;;;;;5043577;28;20090;-75
2022/12/08 05:33:43;;;;;;;0.68;0.60;;;2.50;99.90;;;;;;5042594;28;20562;-76
2022/12/08 05:36:11;;;;;;;0.90;0.80;;;2.50;99.90;;;;;;5043147;28;20040;-74
2022/12/08 05:38:37;;;;;;;0.67;0.50;;;2.60;99.90;;;;;;5042797;28;20045;-75
2022/12/08 05:41:08;;;;;;;10.23;1.50;;;2.50;99.90;;;;;;5047560;28;20098;-74
2022/12/08 05:43:34;;;;;;;2.85;1.00;;;2.60;99.90;;;;;;5062672;28;20044;-75
2022/12/08 05:46:00;;;;;;;2.67;1.13;;;2.60;99.90;;;;;;5055588;28;20684;-75
2022/12/08 05:48:25;;;;;;;7.23;1.77;;;2.70;99.90;;;;;;5058160;28;20048;-75
2022/12/08 05:50:51;;;;;;;1.03;0.50;;;2.70;99.90;;;;;;5043776;28;20102;-75
2022/12/08 05:53:18;;;;;;;6.07;1.07;;;2.70;99.90;;;;;;5063339;28;20106;-75
2022/12/08 05:55:44;;;;;;;1.13;1.03;;;2.70;99.90;;;;;;5063387;28;20048;-75
2022/12/08 05:58:13;;;;;;;1.87;0.60;;;2.70;99.90;;;;;;5060594;28;20049;-75
2022/12/08 06:00:39;;;;;;;1.07;0.63;;;2.80;99.90;;;;;;5054913;28;20088;-75
2022/12/08 06:03:04;;;;;;;2.17;0.50;;;2.80;99.90;;;;;;5061340;28;20036;-75
2022/12/08 06:05:32;;;;;;;0.70;0.47;;;2.80;99.90;;;;;;5059983;28;20062;-75
2022/12/08 06:07:57;;;;;;;0.93;0.93;;;2.80;99.90;;;;;;5062423;28;20143;-74
2022/12/08 06:10:23;;;;;;;2.00;0.70;;;2.80;99.90;;;;;;5061961;28;20131;-75
2022/12/08 06:12:48;;;;;;;1.00;0.87;;;2.70;99.90;;;;;;5062235;28;20410;-75
2022/12/08 06:15:14;;;;;;;4.73;1.03;;;2.70;99.90;;;;;;5063731;28;20044;-75
2022/12/08 06:17:40;;;;;;;1.27;0.52;;;2.70;99.90;;;;;;5061651;28;20044;-75
2022/12/08 06:20:06;;;;;;;3.63;1.47;;;2.60;99.90;;;;;;5054384;28;20072;-75
2022/12/08 06:22:32;;;;;;;2.30;0.60;;;2.60;99.90;;;;;;5059800;28;20128;-73
2022/12/08 06:24:57;;;;;;;1.77;0.70;;;2.50;99.90;;;;;;5061737;28;20123;-73
2022/12/08 06:27:23;;;;;;;0.63;0.30;;;2.50;99.90;;;;;;5060612;28;20033;-74
2022/12/08 06:29:48;;;;;;;2.33;0.90;;;2.50;99.90;;;;;;5065586;28;20033;-75
2022/12/08 06:32:14;;;;;;;7.73;1.30;;;2.40;99.90;;;;;;5061823;28;20028;-75
2022/12/08 06:34:40;;;;;;;1.93;0.67;;;2.40;99.90;;;;;;5063550;28;20081;-75
2022/12/08 06:37:05;;;;;;;3.77;1.83;;;2.30;99.90;;;;;;5064717;28;20037;-75
2022/12/08 06:39:31;;;;;;;2.53;1.20;;;2.30;99.90;;;;;;5065456;28;20048;-75
2022/12/08 06:44:42;;;;;;;1.73;1.23;;;2.20;99.90;;;;;;5046228;28;20117;-75
2022/12/08 06:47:08;;;;;;;6.10;2.40;;;2.10;99.90;;;;;;5055499;28;20040;-75
2022/12/08 06:49:33;;;;;;;1.13;1.00;;;2.00;99.90;;;;;;5063403;28;20406;-75
2022/12/08 06:51:59;;;;;;;1.30;1.03;;;2.00;99.90;;;;;;5063254;28;20087;-75
2022/12/08 06:54:26;;;;;;;0.70;0.70;;;1.90;99.90;;;;;;5064228;28;20406;-75
2022/12/08 06:56:51;;;;;;;4.57;0.97;;;1.90;99.90;;;;;;5065162;28;20482;-75
2022/12/08 06:59:18;;;;;;;3.07;1.10;;;1.90;99.90;;;;;;5064861;28;20099;-75
2022/12/08 07:01:44;;;;;;;2.33;0.70;;;1.80;99.90;;;;;;5062423;28;20328;-75
2022/12/08 07:04:10;;;;;;;11.00;3.50;;;1.90;99.90;;;;;;5062642;28;20052;-75
2022/12/08 07:06:35;;;;;;;3.63;0.83;;;1.90;99.90;;;;;;5057761;28;20395;-75
2022/12/08 07:09:01;;;;;;;18.90;5.97;;;1.90;99.90;;;;;;5063100;28;20615;-75
2022/12/08 07:11:26;;;;;;;1.10;0.50;;;1.80;99.90;;;;;;5064280;28;20047;-75
2022/12/08 07:13:55;;;;;;;3.47;1.90;;;1.80;99.90;;;;;;5065093;28;20044;-75
2022/12/08 07:16:21;;;;;;;51.20;18.73;;;1.80;99.90;;;;;;5064030;28;20414;-75
2022/12/08 07:18:47;;;;;;;4.13;2.10;;;1.70;99.90;;;;;;5064230;28;20051;-75
2022/12/08 07:21:13;;;;;;;2.30;1.10;;;1.70;99.90;;;;;;5062713;28;20055;-75
2022/12/08 07:23:40;;;;;;;1.43;1.00;;;1.70;99.90;;;;;;5065069;28;20063;-75
2022/12/08 07:26:07;;;;;;;13.20;5.50;;;1.60;99.90;;;;;;5063441;28;20040;-78
2022/12/08 07:28:34;;;;;;;1.83;1.60;;;1.60;99.90;;;;;;5062378;28;20040;-75
2022/12/08 07:31:00;;;;;;;14.63;4.60;;;1.60;99.90;;;;;;5063648;28;20040;-75
2022/12/08 07:33:26;;;;;;;4.43;1.10;;;1.60;99.90;;;;;;5063868;28;20055;-75
2022/12/08 07:36:05;;;;;;;2.83;1.67;;;1.60;99.90;;;;;;5063600;28;20504;-75
2022/12/08 07:38:31;;;;;;;2.50;2.13;;;1.50;99.90;;;;;;5063861;28;20041;-75
2022/12/08 07:40:56;;;;;;;3.07;0.90;;;1.50;99.90;;;;;;5063467;28;20113;-75
2022/12/08 07:43:22;;;;;;;1.47;1.00;;;1.50;99.90;;;;;;5062262;28;20049;-76
2022/12/08 07:45:49;;;;;;;2.47;1.20;;;1.50;99.90;;;;;;5062990;28;20051;-75
2022/12/08 07:48:15;;;;;;;1.93;0.97;;;1.50;99.90;;;;;;5064143;28;20036;-75
2022/12/08 07:50:41;;;;;;;3.70;1.63;;;1.40;99.90;;;;;;5061774;28;20056;-75
2022/12/08 07:53:07;;;;;;;1.77;1.47;;;1.40;99.90;;;;;;5062922;28;20490;-75
2022/12/08 07:55:33;;;;;;;2.97;1.67;;;1.40;99.90;;;;;;5063615;28;20040;-75
2022/12/08 07:57:59;;;;;;;2.30;1.77;;;1.40;99.90;;;;;;5063741;28;20056;-75
2022/12/08 08:00:25;;;;;;;3.10;2.00;;;1.40;99.90;;;;;;5062788;28;20040;-75
2022/12/08 08:02:50;;;;;;;17.00;7.97;;;1.40;99.90;;;;;;5063422;28;20040;-76
2022/12/08 08:05:16;;;;;;;7.77;3.90;;;1.40;99.90;;;;;;5062914;28;20102;-75
2022/12/08 08:07:42;;;;;;;7.57;2.83;;;1.40;99.90;;;;;;5061844;28;20108;-75
2022/12/08 08:10:09;;;;;;;4.60;2.37;;;1.40;99.90;;;;;;5062241;28;20037;-75
2022/12/08 08:12:36;;;;;;;5.60;2.40;;;1.40;99.90;;;;;;5062760;28;20098;-75
2022/12/08 08:15:04;;;;;;;4.60;2.50;;;1.40;99.90;;;;;;5063106;28;20033;-75
2022/12/08 08:17:30;;;;;;;3.20;1.80;;;1.40;99.90;;;;;;5061557;28;20070;-75
2022/12/08 08:19:55;;;;;;;2.87;1.87;;;1.30;99.90;;;;;;5061825;28;20071;-75
2022/12/08 08:22:21;;;;;;;1.90;1.50;;;1.30;99.90;;;;;;5061735;28;20505;-76
2022/12/08 08:24:47;;;;;;;2.87;1.80;;;1.40;99.90;;;;;;5062065;28;20045;-75
2022/12/08 08:27:12;;;;;;;8.07;3.43;;;1.40;99.90;;;;;;5062238;28;20050;-75
2022/12/08 08:29:38;;;;;;;4.70;1.53;;;1.40;99.90;;;;;;5060816;28;20044;-76
2022/12/08 08:32:04;;;;;;;2.60;1.53;;;1.40;99.90;;;;;;5062339;28;20444;-75
2022/12/08 08:34:30;;;;;;;3.37;1.53;;;1.40;99.90;;;;;;5061816;28;20095;-75
2022/12/08 08:36:55;;;;;;;3.50;1.93;;;1.40;99.90;;;;;;5061812;28;20082;-76
2022/12/08 08:39:21;;;;;;;3.10;1.10;;;1.50;99.90;;;;;;5063021;28;20047;-75
2022/12/08 08:41:46;;;;;;;3.00;1.17;;;1.50;99.90;;;;;;5063032;28;20037;-75
2022/12/08 08:44:13;;;;;;;2.40;1.47;;;1.50;99.90;;;;;;5062037;28;20642;-75
2022/12/08 08:46:40;;;;;;;4.03;1.80;;;1.60;99.90;;;;;;5060799;28;20189;-75
2022/12/08 08:49:05;;;;;;;14.83;1.60;;;1.70;99.90;;;;;;5061516;28;20128;-76
2022/12/08 08:51:31;;;;;;;23.30;2.03;;;1.70;99.90;;;;;;5062034;28;20123;-75
2022/12/08 08:53:57;;;;;;;2.93;1.97;;;1.70;99.90;;;;;;5061413;28;20040;-76
2022/12/08 08:56:23;;;;;;;7.80;2.93;;;1.70;99.90;;;;;;5062553;28;20094;-76
2022/12/08 08:58:49;;;;;;;3.80;2.03;;;1.70;99.90;;;;;;5062058;28;20036;-77
2022/12/08 09:01:23;;;;;;;4.67;1.37;;;1.80;99.90;;;;;;5062473;28;20541;-75
2022/12/08 09:03:48;;;;;;;4.83;2.03;;;1.80;99.90;;;;;;5061187;28;20048;-77
2022/12/08 09:06:15;;;;;;;1.43;1.00;;;1.70;99.90;;;;;;5061704;28;20670;-75
2022/12/08 09:08:41;;;;;;;7.10;1.70;;;1.80;99.90;;;;;;5060998;28;20079;-76
2022/12/08 09:11:08;;;;;;;3.23;1.60;;;1.70;99.90;;;;;;5061241;28;20552;-75
2022/12/08 09:13:34;;;;;;;1.60;1.17;;;1.70;99.90;;;;;;5060640;28;20052;-75
2022/12/08 09:16:01;;;;;;;2.53;1.40;;;1.70;99.90;;;;;;5061376;28;20488;-75
2022/12/08 09:18:27;;;;;;;2.13;1.10;;;1.70;99.90;;;;;;5060614;28;20043;-75
2022/12/08 09:20:53;;;;;;;8.73;2.43;;;1.70;99.90;;;;;;5061600;28;20048;-75
2022/12/08 09:23:19;;;;;;;1.87;1.03;;;1.70;99.90;;;;;;5061238;28;20033;-76
2022/12/08 09:25:45;;;;;;;1.60;1.30;;;1.80;99.90;;;;;;5059903;28;20301;-75
2022/12/08 09:28:11;;;;;;;2.30;1.73;;;1.70;99.90;;;;;;5041815;28;20068;-76
2022/12/08 09:30:37;;;;;;;3.10;1.33;;;1.80;99.90;;;;;;5041826;28;20076;-76
2022/12/08 09:33:03;;;;;;;6.00;1.77;;;1.80;99.90;;;;;;5039925;28;20518;-76
2022/12/08 09:35:28;;;;;;;1.67;1.33;;;1.80;99.90;;;;;;5040214;28;20145;-75
2022/12/08 09:37:54;;;;;;;1.57;1.30;;;1.80;99.90;;;;;;5041724;28;20363;-75
2022/12/08 09:40:22;;;;;;;7.70;1.90;;;1.90;99.90;;;;;;5039857;28;20123;-76
2022/12/08 09:42:58;;;;;;;4.17;1.47;;;1.90;99.90;;;;;;5041453;28;20045;-75
2022/12/08 09:45:27;;;;;;;6.87;2.20;;;1.90;99.90;;;;;;5040598;28;20379;-75
2022/12/08 09:48:01;;;;;;;2.10;1.73;;;1.90;99.90;;;;;;5041044;28;20078;-75
2022/12/08 09:50:53;;;;;;;1.80;1.37;;;1.90;99.90;;;;;;5042115;28;20449;-75
2022/12/08 09:53:27;;;;;;;9.55;1.33;;;1.90;99.90;;;;;;5019086;28;20211;-76
2022/12/08 09:55:59;;;;;;;3.40;1.07;;;1.90;99.90;;;;;;5040711;28;20049;-76
2022/12/08 09:58:51;;;;;;;3.17;1.80;;;1.90;99.90;;;;;;5039700;28;20045;-76
2022/12/08 10:01:18;;;;;;;4.40;1.85;;;1.90;99.90;;;;;;5039008;28;20132;-75
2022/12/08 10:03:45;;;;;;;12.50;2.33;;;2.00;99.90;;;;;;5047322;28;20037;-75
2022/12/08 10:06:29;;;;;;;4.57;1.67;;;2.00;99.90;;;;;;5047592;28;20324;-75
2022/12/08 10:09:18;;;;;;;2.33;1.80;;;2.10;99.90;;;;;;5047660;28;20103;-75
2022/12/08 10:12:13;;;;;;;1.60;1.50;;;2.20;99.90;;;;;;5046703;28;20056;-75
2022/12/08 10:15:04;;;;;;;1.97;1.30;;;2.20;99.90;;;;;;5030082;28;20049;-75
2022/12/08 10:17:37;;;;;;;4.40;1.50;;;2.20;99.90;;;;;;5029970;28;20127;-75
2022/12/08 10:20:24;;;;;;;2.67;1.20;;;2.30;99.90;;;;;;5046692;28;20045;-75
2022/12/08 10:23:04;;;;;;;1.47;1.37;;;2.40;99.90;;;;;;5046573;28;20071;-76
2022/12/08 10:25:45;;;;;;;20.67;1.43;;;2.40;99.90;;;;;;5047681;28;20401;-75
2022/12/08 10:28:12;;;;;;;3.60;2.10;;;2.40;99.90;;;;;;5067461;28;20036;-75
2022/12/08 10:30:37;;;;;;;4.90;1.93;;;2.50;99.90;;;;;;5067973;28;20040;-75
2022/12/08 10:33:03;;;;;;;2.97;1.40;;;2.50;99.90;;;;;;5066685;28;20067;-76
2022/12/08 10:35:48;;;;;;;4.73;2.07;;;2.60;99.90;;;;;;5065941;28;20525;-76
2022/12/08 10:38:30;;;;;;;4.93;2.00;;;2.60;99.90;;;;;;5066362;28;20048;-76
2022/12/08 10:41:09;;;;;;;2.03;1.17;;;2.60;99.90;;;;;;5067394;28;20087;-76
2022/12/08 10:43:56;;;;;;;6.93;2.07;;;2.70;99.90;;;;;;5067280;28;20052;-75
2022/12/08 10:46:24;;;;;;;4.27;1.43;;;2.70;99.90;;;;;;5067497;28;20044;-76
2022/12/08 10:48:52;;;;;;;8.83;1.43;;;2.80;99.90;;;;;;5066422;28;20040;-75
2022/12/08 10:51:36;;;;;;;3.30;1.80;;;2.80;99.90;;;;;;5050417;28;20055;-75
2022/12/08 10:54:04;;;;;;;4.33;1.87;;;2.90;99.90;;;;;;5067397;28;20466;-75
2022/12/08 10:56:31;;;;;;;11.07;1.63;;;2.90;99.90;;;;;;5067193;28;20072;-75
2022/12/08 10:59:18;;;;;;;5.50;2.17;;;2.90;99.90;;;;;;5066707;28;20392;-76
2022/12/08 11:01:48;;;;;;;3.77;1.83;;;3.00;99.90;;;;;;5066370;28;20111;-75
2022/12/08 11:04:21;;;;;;;4.87;1.67;;;3.10;99.90;;;;;;5066400;28;20036;-75
2022/12/08 11:06:49;;;;;;;7.03;1.03;;;3.10;99.90;;;;;;5062420;28;20048;-75
2022/12/08 11:09:14;;;;;;;10.32;2.88;;;3.20;99.90;;;;;;5059611;28;20036;-75
2022/12/08 11:11:52;;;;;;;2.88;2.17;;;3.30;99.90;;;;;;5056592;28;20059;-75
2022/12/08 11:14:28;;;;;;;2.65;1.10;;;3.20;99.90;;;;;;5061685;28;20056;-75
2022/12/08 11:17:07;;;;;;;11.23;1.33;;;3.30;99.90;;;;;;5055451;28;20048;-75
2022/12/08 11:19:37;;;;;;;2.35;1.10;;;3.30;99.90;;;;;;5055830;28;20040;-76
2022/12/08 11:22:28;;;;;;;1.73;0.75;;;3.40;99.90;;;;;;5060659;28;20044;-76
2022/12/08 11:25:06;;;;;;;3.03;1.65;;;3.40;99.90;;;;;;5064924;28;20068;-75
2022/12/08 11:27:33;;;;;;;2.72;1.52;;;3.40;99.90;;;;;;5061086;28;20101;-74
2022/12/08 11:30:00;;;;;;;3.50;2.37;;;3.40;99.90;;;;;;5062829;28;20123;-76
2022/12/08 11:32:26;;;;;;;3.53;2.08;;;3.50;99.90;;;;;;5063570;28;20036;-78
2022/12/08 11:35:04;;;;;;;4.73;2.73;;;3.50;99.90;;;;;;5053129;28;20477;-76
2022/12/08 11:37:42;;;;;;;1.43;0.90;;;3.50;99.90;;;;;;5063000;28;20521;-75
2022/12/08 11:40:24;;;;;;;2.08;1.52;;;3.50;99.90;;;;;;5063065;28;20494;-75
2022/12/08 11:42:54;;;;;;;9.30;1.77;;;3.50;99.90;;;;;;5062545;28;20047;-77
2022/12/08 11:45:26;;;;;;;3.78;1.20;;;3.50;99.90;;;;;;5065085;28;20347;-76
2022/12/08 11:47:57;;;;;;;3.78;1.77;;;3.50;99.90;;;;;;5061751;28;20151;-76
2022/12/08 11:50:46;;;;;;;8.27;2.03;;;3.50;99.90;;;;;;5046857;28;20041;-76
2022/12/08 11:53:21;;;;;;;5.38;2.85;;;3.60;99.90;;;;;;5051607;28;20296;-75
2022/12/08 11:55:57;;;;;;;6.80;1.48;;;3.60;99.90;;;;;;5058557;28;20076;-76
2022/12/08 11:58:37;;;;;;;7.88;2.58;;;3.60;99.90;;;;;;5061087;28;20346;-76
2022/12/08 12:01:02;;;;;;;2.45;1.00;;;3.60;99.90;;;;;;5058831;28;20071;-78
2022/12/08 12:04:09;;;;;;;1.65;0.90;;;3.60;99.90;;;;;;5055284;28;20040;-79
2022/12/08 12:06:50;;;;;;;1.27;0.60;;;3.60;99.90;;;;;;5038804;28;20052;-81
2022/12/08 12:09:46;;;;;;;0.82;0.70;;;3.60;99.90;;;;;;5063322;28;20378;-79
2022/12/08 12:12:36;;;;;;;0.80;0.38;;;3.60;99.90;;;;;;5058667;28;20048;-79
2022/12/08 12:15:24;;;;;;;2.17;0.47;;;3.60;99.90;;;;;;5050381;28;20072;-79
2022/12/08 12:17:52;;;;;;;9.05;0.85;;;3.60;99.90;;;;;;5063255;28;20106;-78
2022/12/08 12:20:27;;;;;;;0.70;0.38;;;3.60;99.90;;;;;;5059684;28;20036;-78
2022/12/08 12:23:06;;;;;;;0.93;0.40;;;3.60;99.90;;;;;;5053904;28;20048;-78
2022/12/08 12:25:34;;;;;;;1.08;0.60;;;3.60;99.90;;;;;;5062116;28;20044;-77
2022/12/08 12:28:03;;;;;;;0.57;0.45;;;3.60;99.90;;;;;;5058379;28;20040;-77
2022/12/08 12:31:06;;;;;;;3.60;0.40;;;3.60;99.90;;;;;;5048346;28;20056;-77
2022/12/08 12:33:32;;;;;;;;;;;3.60;99.90;;;;;;5038864;28;20149;-76
2022/12/08 12:36:02;;;;;;;1.08;1.02;;;3.60;99.90;;;;;;5057962;28;19966;-76
2022/12/08 12:41:27;;;;;;;4.32;1.58;;;3.70;99.90;;;;;;5042294;28;20052;-76
2022/12/08 12:44:12;;;;;;;0.90;0.63;;;3.70;99.90;;;;;;5049920;28;20063;-80
2022/12/08 12:46:56;;;;;;;6.70;1.50;;;3.80;99.90;;;;;;5058167;28;20087;-77
2022/12/08 12:50:02;;;;;;;4.28;3.85;;;3.80;99.90;;;;;;5055961;28;20056;-78
2022/12/08 12:52:31;;;;;;;2.03;1.52;;;3.90;99.90;;;;;;5050803;28;20449;-76
2022/12/08 12:54:56;;;;;;;2.13;0.80;;;3.90;99.90;;;;;;5055545;28;20063;-77
2022/12/08 12:57:43;;;;;;;1.75;1.17;;;3.90;99.90;;;;;;5052711;28;20045;-75
2022/12/08 13:00:18;;;;;;;1.53;0.80;;;3.90;99.90;;;;;;5046264;28;20052;-75
2022/12/08 13:02:43;;;;;;;0.63;0.55;;;3.90;99.90;;;;;;5047733;28;20048;-75
2022/12/08 13:05:16;;;;;;;1.88;0.60;;;4.00;99.90;;;;;;5059621;28;20110;-75
2022/12/08 13:07:49;;;;;;;1.10;0.57;;;4.00;99.90;;;;;;5045776;28;20048;-80
2022/12/08 13:10:17;;;;;;;1.73;0.70;;;4.00;99.90;;;;;;5056206;28;20059;-78
2022/12/08 13:12:45;;;;;;;0.75;0.55;;;4.00;99.90;;;;;;5058859;28;20080;-80
2022/12/08 13:15:20;;;;;;;4.45;0.85;;;4.00;99.90;;;;;;5056880;28;20055;-80
2022/12/08 13:17:47;;;;;;;1.30;0.70;;;4.00;99.90;;;;;;5056763;28;20037;-79
2022/12/08 13:20:23;;;;;;;1.30;0.30;;;4.00;99.90;;;;;;5036449;28;20044;-79
2022/12/08 13:23:11;;;;;;;1.58;0.95;;;4.00;99.90;;;;;;5053919;28;20067;-81